Time;durP1;ratioP1;P1;durP2;ratioP2;P2;SDS_P1;SDS_P2;PMS_P1;PMS_P2;Temp;Humidity;BMP_temperature;BMP_pressure;BME280_temperature;BME280_humidity;BME280_pressure;Samples;Min_cycle;Max_cycle;Signal;HPM_P1;HPM_P2
2021/11/23 00:00:48;;;;;;;13.37;12.00;;;-1.40;97.20;;;-3.15;99.88;99034.88;4968387;28;21064;-71
2021/11/23 00:03:18;;;;;;;12.67;11.33;;;-1.40;97.00;;;-3.09;99.90;99046.03;4970018;28;20477;-71
2021/11/23 00:05:45;;;;;;;15.10;11.97;;;-1.40;97.50;;;-3.18;99.56;99040.38;4972459;28;20462;-71
2021/11/23 00:08:17;;;;;;;20.50;15.80;;;-1.50;97.00;;;-3.14;99.76;99035.75;4976294;28;20456;-70
2021/11/23 00:10:46;;;;;;;30.17;19.90;;;-1.50;97.80;;;-3.10;99.41;99033.75;4971074;28;20460;-72
2021/11/23 00:13:15;;;;;;;32.60;18.97;;;-1.40;97.60;;;-3.23;99.72;99042.50;4952139;28;20923;-70
2021/11/23 00:15:43;;;;;;;24.60;17.67;;;-1.40;96.40;;;-3.25;100.00;99048.84;4970397;28;20489;-71
2021/11/23 00:18:12;;;;;;;27.50;18.20;;;-1.50;96.80;;;-3.33;100.00;99041.41;4955539;28;20465;-70
2021/11/23 00:20:43;;;;;;;33.40;19.53;;;-1.50;97.40;;;-3.29;100.00;99042.91;4970794;28;20468;-71
2021/11/23 00:23:13;;;;;;;29.10;18.37;;;-1.50;98.30;;;-3.25;100.00;99047.06;4969833;28;20480;-71
2021/11/23 00:25:42;;;;;;;45.40;24.27;;;-1.50;99.00;;;-3.24;100.00;99040.81;4954531;28;21032;-71
2021/11/23 00:28:09;;;;;;;47.80;26.13;;;-1.40;99.20;;;-3.17;100.00;99034.16;4970512;28;20457;-71
2021/11/23 00:30:38;;;;;;;41.30;24.87;;;-1.40;99.50;;;-3.09;100.00;99043.38;4971810;28;20470;-70
2021/11/23 00:33:06;;;;;;;26.63;18.20;;;-1.40;99.90;;;-3.03;99.45;99032.38;4970049;28;20540;-71
2021/11/23 00:35:33;;;;;;;26.93;18.43;;;-1.40;98.40;;;-3.09;98.88;99043.38;4971989;28;20472;-71
2021/11/23 00:38:01;;;;;;;21.03;16.00;;;-1.40;96.10;;;-3.21;99.09;99050.31;4966041;28;22169;-71
2021/11/23 00:40:29;;;;;;;21.97;15.20;;;-1.50;95.70;;;-3.31;99.93;99050.94;4955785;28;20461;-71
2021/11/23 00:43:03;;;;;;;21.10;14.77;;;-1.50;96.20;;;-3.33;100.00;99051.97;4969479;28;20488;-70
2021/11/23 00:45:30;;;;;;;16.83;14.00;;;-1.60;96.80;;;-3.25;100.00;99054.13;4971461;28;20477;-71
2021/11/23 00:47:57;;;;;;;14.33;12.80;;;-1.50;97.90;;;-3.29;99.82;99059.63;4966252;28;20871;-71
2021/11/23 00:50:26;;;;;;;18.90;15.90;;;-1.60;96.90;;;-3.23;99.82;99063.66;4964460;28;20469;-71
2021/11/23 00:52:53;;;;;;;23.17;15.40;;;-1.60;98.70;;;-3.16;99.50;99046.41;4965935;28;20468;-70
2021/11/23 00:55:20;;;;;;;19.40;16.93;;;-1.50;98.50;;;-3.19;99.46;99049.28;4953185;28;20449;-71
2021/11/23 00:57:49;;;;;;;14.27;11.90;;;-1.50;97.20;;;-3.19;98.97;99049.28;4955481;28;20469;-69
2021/11/23 01:00:17;;;;;;;15.60;14.00;;;-1.40;96.30;;;-3.20;99.56;99058.16;4968286;28;20476;-70
2021/11/23 01:02:44;;;;;;;16.53;13.63;;;-1.50;95.90;;;-3.18;99.56;99056.25;4968845;28;20469;-70
2021/11/23 01:05:12;;;;;;;13.90;12.60;;;-1.50;96.90;;;-3.25;99.33;99049.69;4955420;28;20458;-70
2021/11/23 01:07:39;;;;;;;13.23;11.53;;;-1.60;96.20;;;-3.19;98.59;99059.84;4948909;28;20450;-70
2021/11/23 01:10:09;;;;;;;16.83;14.00;;;-1.50;95.10;;;-3.30;99.58;99057.06;4969276;28;20454;-69
2021/11/23 01:12:37;;;;;;;17.17;13.97;;;-1.50;95.40;;;-3.35;99.08;99053.88;4955608;28;20465;-69
2021/11/23 01:15:09;;;;;;;19.80;14.03;;;-1.60;96.20;;;-3.27;99.51;99046.28;4967533;28;20470;-72
2021/11/23 01:17:37;;;;;;;16.07;12.27;;;-1.60;98.00;;;-3.42;99.21;99048.97;4967792;28;20973;-71
2021/11/23 01:20:08;;;;;;;18.17;14.90;;;-1.70;95.40;;;-3.57;99.79;99042.06;4957371;28;20482;-70
2021/11/23 01:22:35;;;;;;;17.30;13.00;;;-1.70;95.90;;;-3.64;100.00;99056.63;4954827;28;20457;-71
2021/11/23 01:25:05;;;;;;;16.47;12.80;;;-1.80;96.30;;;-3.28;99.65;99057.81;4951076;28;20532;-72
2021/11/23 01:27:32;;;;;;;13.73;12.30;;;-1.70;99.90;;;-3.47;99.50;99048.44;4968487;28;20473;-72
2021/11/23 01:29:59;;;;;;;22.97;14.40;;;-1.70;95.70;;;-3.62;99.32;99046.81;4973075;28;20557;-71
2021/11/23 01:32:28;;;;;;;12.97;11.20;;;-1.90;95.00;;;-3.68;100.00;99048.06;4953252;28;20972;-70
2021/11/23 01:34:55;;;;;;;17.10;12.97;;;-1.90;96.00;;;-3.73;100.00;99055.44;4968851;28;20461;-71
2021/11/23 01:37:22;;;;;;;14.80;12.30;;;-2.00;96.40;;;-3.90;100.00;99033.59;4949550;28;20454;-70
2021/11/23 01:39:49;;;;;;;16.20;12.40;;;-2.00;97.10;;;-3.68;100.00;99047.22;4968385;28;20457;-70
2021/11/23 01:42:16;;;;;;;16.00;12.73;;;-1.90;98.70;;;-3.60;100.00;99053.69;4953863;28;21006;-69
2021/11/23 01:44:44;;;;;;;15.37;12.60;;;-1.90;99.90;;;-3.45;98.98;99053.66;4966383;28;21060;-70
2021/11/23 01:47:11;;;;;;;14.77;11.80;;;-1.80;98.10;;;-3.55;98.79;99058.69;4967724;28;20465;-71
2021/11/23 01:49:39;;;;;;;15.40;11.43;;;-1.80;95.70;;;-3.66;98.94;99061.19;4973749;28;20563;-71
2021/11/23 01:52:07;;;;;;;15.67;11.50;;;-1.90;95.10;;;-3.72;99.68;99057.97;4966522;28;20465;-71
2021/11/23 01:54:35;;;;;;;16.43;12.90;;;-2.00;95.50;;;-3.70;99.65;99061.38;4955723;28;20469;-70
2021/11/23 01:57:03;;;;;;;13.80;11.60;;;-2.10;96.90;;;-3.47;98.38;99059.03;4969517;28;20466;-71
2021/11/23 01:59:30;;;;;;;14.27;11.97;;;-1.90;97.70;;;-3.47;97.57;99061.66;4967310;28;20461;-71
2021/11/23 02:01:57;;;;;;;14.60;12.60;;;-1.80;94.50;;;-3.75;98.15;99063.44;4966155;28;20492;-70
2021/11/23 02:04:25;;;;;;;14.57;11.80;;;-2.00;93.00;;;-3.76;99.14;99063.56;4970360;28;20984;-70
2021/11/23 02:06:53;;;;;;;15.33;12.00;;;-2.10;94.70;;;-3.87;99.02;99056.31;4969681;28;20516;-70
2021/11/23 02:09:20;;;;;;;13.80;11.70;;;-2.10;94.90;;;-3.75;99.76;99052.88;4953353;28;20520;-70
2021/11/23 02:11:48;;;;;;;16.37;11.93;;;-2.10;97.70;;;-3.96;99.53;99018.13;4951134;28;20481;-71
2021/11/23 02:14:15;;;;;;;13.43;10.57;;;-2.10;96.80;;;-3.78;99.11;99055.72;4954115;28;20516;-71
2021/11/23 02:16:42;;;;;;;14.50;11.27;;;-2.10;96.40;;;-3.88;99.05;99058.13;4950112;28;20877;-70
2021/11/23 02:19:09;;;;;;;17.97;11.40;;;-2.10;95.40;;;-3.99;100.00;99061.44;4966442;28;21098;-71
2021/11/23 02:21:38;;;;;;;15.73;12.33;;;-2.30;95.50;;;-3.96;100.00;99059.56;4966661;28;20464;-71
2021/11/23 02:24:06;;;;;;;23.40;16.07;;;-2.20;96.40;;;-4.07;100.00;99047.88;4966211;28;20461;-72
2021/11/23 02:26:33;;;;;;;23.60;16.90;;;-2.30;97.00;;;-4.00;100.00;99053.59;4971589;28;20465;-71
2021/11/23 02:29:00;;;;;;;29.17;18.93;;;-2.30;98.80;;;-3.97;100.00;99049.94;4969509;28;20569;-70
2021/11/23 02:31:27;;;;;;;26.03;17.20;;;-2.20;99.80;;;-4.06;100.00;99044.28;4970521;28;20453;-70
2021/11/23 02:33:55;;;;;;;32.50;19.63;;;-2.30;98.10;;;-3.99;100.00;99042.97;4965295;28;20477;-71
2021/11/23 02:36:22;;;;;;;23.77;17.90;;;-2.30;99.90;;;-4.09;100.00;99035.69;4964406;28;20552;-72
2021/11/23 02:38:52;;;;;;;40.37;21.90;;;-2.40;99.30;;;-4.23;100.00;99041.84;4951984;28;20524;-72
2021/11/23 02:41:19;;;;;;;41.50;25.30;;;-2.40;98.40;;;-4.32;100.00;99027.44;4968941;28;20464;-71
2021/11/23 02:43:48;;;;;;;42.50;23.10;;;-2.50;99.10;;;-4.29;100.00;99022.84;4963710;28;20477;-71
2021/11/23 02:46:15;;;;;;;40.10;23.83;;;-2.50;99.90;;;-4.31;100.00;99022.09;4966455;28;20492;-71
2021/11/23 02:48:43;;;;;;;33.00;20.27;;;-2.50;99.90;;;-4.24;100.00;99029.59;4974448;28;21031;-70
2021/11/23 02:51:14;;;;;;;36.20;20.80;;;-2.50;99.90;;;-4.28;100.00;99035.09;4984365;28;20469;-71
2021/11/23 02:53:42;;;;;;;40.53;20.57;;;-2.50;99.90;;;-4.25;100.00;99039.31;4987245;28;20460;-71
2021/11/23 02:56:11;;;;;;;33.03;18.67;;;-2.50;99.90;;;-4.34;100.00;99040.72;4987346;28;20462;-70
2021/11/23 02:58:40;;;;;;;28.03;19.50;;;-2.60;99.90;;;-4.19;100.00;99051.28;4971209;28;20470;-70
2021/11/23 03:01:09;;;;;;;33.37;21.50;;;-2.50;99.90;;;-4.12;100.00;99034.94;4990864;28;20485;-70
2021/11/23 03:03:36;;;;;;;31.97;20.87;;;-2.40;99.90;;;-3.96;100.00;99043.72;4987402;28;20469;-70
2021/11/23 03:06:04;;;;;;;29.83;19.80;;;-2.30;99.90;;;-3.83;99.42;99049.91;4973102;28;21024;-71
2021/11/23 03:08:32;;;;;;;23.73;15.50;;;-2.20;99.10;;;-3.99;99.41;99050.88;4975986;28;20979;-72
2021/11/23 03:11:01;;;;;;;19.30;14.07;;;-2.20;95.40;;;-3.92;99.39;99046.06;4953003;28;20568;-71
2021/11/23 03:13:29;;;;;;;18.77;13.77;;;-2.20;95.70;;;-4.04;99.05;99045.03;4970705;28;21243;-72
2021/11/23 03:15:56;;;;;;;16.83;12.90;;;-2.20;94.40;;;-4.03;99.78;99049.34;4950517;28;20458;-70
2021/11/23 03:18:24;;;;;;;15.60;12.23;;;-2.20;95.70;;;-4.08;99.80;99051.44;4957714;28;20538;-70
2021/11/23 03:20:51;;;;;;;16.20;12.10;;;-2.30;95.00;;;-4.05;99.59;99042.50;4949073;28;20969;-71
2021/11/23 03:23:19;;;;;;;15.00;11.80;;;-2.30;94.40;;;-4.31;100.00;99048.47;4963794;28;20465;-71
2021/11/23 03:25:46;;;;;;;15.80;12.93;;;-2.50;93.70;;;-4.45;100.00;99038.75;4966296;28;20470;-71
2021/11/23 03:28:13;;;;;;;17.60;12.77;;;-2.60;94.60;;;-4.48;100.00;99048.66;4955940;28;20466;-71
2021/11/23 03:30:43;;;;;;;14.30;11.70;;;-2.70;95.60;;;-4.24;100.00;99050.72;4948448;28;20524;-71
2021/11/23 03:33:11;;;;;;;20.17;12.60;;;-2.60;99.50;;;-4.22;99.67;99046.19;4967900;28;20957;-71
2021/11/23 03:35:43;;;;;;;16.13;11.93;;;-2.50;97.60;;;-4.33;99.45;99052.97;4964334;28;20461;-71
2021/11/23 03:38:13;;;;;;;16.00;11.80;;;-2.60;95.50;;;-4.45;99.26;99059.03;4966885;28;20465;-70
2021/11/23 03:40:42;;;;;;;15.37;11.60;;;-2.60;94.30;;;-4.59;99.95;99047.53;4969793;28;21109;-70
2021/11/23 03:43:11;;;;;;;13.97;11.87;;;-2.70;95.00;;;-4.54;100.00;99065.72;4968183;28;20461;-70
2021/11/23 03:45:39;;;;;;;15.27;11.97;;;-2.70;95.30;;;-4.63;100.00;99059.19;4968540;28;20864;-69
2021/11/23 03:48:08;;;;;;;15.60;11.60;;;-2.80;95.60;;;-4.47;100.00;99058.28;4963853;28;20482;-69
2021/11/23 03:50:35;;;;;;;13.80;11.57;;;-2.80;98.30;;;-4.39;99.95;99065.72;4966236;28;20461;-71
2021/11/23 03:53:02;;;;;;;19.15;12.30;;;-2.70;97.00;;;-4.50;99.33;99053.16;4968093;28;20548;-70
2021/11/23 03:55:32;;;;;;;14.53;11.50;;;-2.70;96.20;;;-4.43;99.06;99071.16;4971382;28;20575;-69
2021/11/23 03:58:01;;;;;;;14.30;11.43;;;-2.70;96.20;;;-4.56;99.45;99067.59;4977650;28;20457;-70
2021/11/23 04:00:28;;;;;;;14.20;11.90;;;-2.80;94.70;;;-4.87;99.99;99027.25;4966924;28;21734;-69
2021/11/23 04:02:56;;;;;;;14.90;11.40;;;-2.80;95.60;;;-4.62;100.00;99068.81;4951199;28;20466;-71
2021/11/23 04:05:24;;;;;;;16.83;12.00;;;-2.90;95.80;;;-4.69;100.00;99078.03;4954456;28;20470;-70
2021/11/23 04:07:52;;;;;;;16.23;11.20;;;-3.00;95.90;;;-4.63;100.00;99088.19;4966345;28;20457;-69
2021/11/23 04:10:21;;;;;;;13.47;11.40;;;-3.00;97.90;;;-4.60;100.00;99088.03;4958393;28;20481;-69
2021/11/23 04:12:48;;;;;;;18.83;11.63;;;-2.90;98.30;;;-4.79;100.00;99055.78;4951849;28;20462;-70
2021/11/23 04:15:17;;;;;;;20.50;14.90;;;-2.90;97.70;;;-4.77;100.00;99081.13;4952582;28;20852;-69
2021/11/23 04:17:45;;;;;;;17.57;12.43;;;-3.00;97.20;;;-4.75;100.00;99073.16;4951754;28;20895;-70
2021/11/23 04:20:13;;;;;;;20.20;13.67;;;-2.90;98.00;;;-4.68;100.00;99078.91;4971577;28;20469;-71
2021/11/23 04:22:41;;;;;;;17.33;13.00;;;-2.90;98.80;;;-4.70;100.00;99071.06;4970961;28;20454;-70
2021/11/23 04:25:10;;;;;;;17.80;12.87;;;-2.90;98.40;;;-4.66;100.00;99075.22;4951087;28;20485;-71
2021/11/23 04:27:39;;;;;;;21.33;13.80;;;-2.90;98.80;;;-4.81;100.00;99065.59;4970243;28;21578;-70
2021/11/23 04:30:10;;;;;;;19.30;14.20;;;-3.00;97.70;;;-4.77;100.00;99062.69;4956232;28;20453;-70
2021/11/23 04:32:38;;;;;;;22.57;14.63;;;-3.00;98.00;;;-4.73;100.00;99066.81;4953879;28;20462;-71
2021/11/23 04:35:07;;;;;;;18.77;13.33;;;-2.90;98.70;;;-4.69;100.00;99072.75;4971200;28;20800;-70
2021/11/23 04:37:34;;;;;;;21.87;14.10;;;-2.90;99.30;;;-4.63;100.00;99072.38;4971194;28;20953;-70
2021/11/23 04:40:03;;;;;;;18.63;13.90;;;-2.90;98.40;;;-4.55;100.00;99059.59;4971251;28;20477;-71
2021/11/23 04:42:30;;;;;;;16.50;12.40;;;-2.90;99.90;;;-4.44;99.21;99068.66;4974354;28;20475;-70
2021/11/23 04:44:57;;;;;;;18.50;12.60;;;-2.80;98.90;;;-4.61;99.60;99075.81;4957636;28;20478;-70
2021/11/23 04:47:24;;;;;;;16.50;12.40;;;-2.90;95.70;;;-4.73;99.46;99065.97;4968637;28;20476;-70
2021/11/23 04:49:51;;;;;;;16.47;12.53;;;-2.90;95.30;;;-4.56;99.86;99081.63;4952859;28;20504;-71
2021/11/23 04:52:18;;;;;;;21.13;14.60;;;-2.90;97.30;;;-4.55;98.70;99049.03;4956547;28;20529;-70
2021/11/23 04:54:46;;;;;;;17.33;13.07;;;-2.80;96.70;;;-4.62;98.56;99078.50;4971250;28;20512;-71
2021/11/23 04:57:14;;;;;;;16.80;13.97;;;-2.90;93.90;;;-4.55;98.44;99070.13;4969577;28;20454;-70
2021/11/23 04:59:41;;;;;;;20.97;15.10;;;-2.80;94.10;;;-4.72;99.15;99080.88;4973283;28;20480;-70
2021/11/23 05:02:09;;;;;;;22.90;17.10;;;-2.90;92.80;;;-5.16;99.80;99030.69;4970197;28;20799;-71
2021/11/23 05:04:37;;;;;;;23.23;16.37;;;-3.00;93.40;;;-4.74;99.46;99085.38;4970509;28;20469;-70
2021/11/23 05:07:04;;;;;;;22.87;17.30;;;-3.00;95.40;;;-4.88;99.88;99094.97;4968853;28;20472;-71
2021/11/23 05:09:31;;;;;;;22.50;15.57;;;-3.10;94.10;;;-4.94;99.99;99090.03;4973645;28;20526;-72
2021/11/23 05:11:58;;;;;;;43.37;21.33;;;-3.20;94.80;;;-4.93;100.00;99089.09;4971482;28;20478;-71
2021/11/23 05:14:27;;;;;;;38.23;21.83;;;-3.20;95.70;;;-4.88;100.00;99079.16;4969413;28;20466;-70
2021/11/23 05:16:54;;;;;;;29.70;19.53;;;-3.10;97.60;;;-4.81;100.00;99089.31;4954620;28;20470;-71
2021/11/23 05:19:21;;;;;;;43.27;24.10;;;-3.10;98.90;;;-4.64;99.67;99097.06;4968438;28;20461;-70
2021/11/23 05:21:48;;;;;;;37.90;21.40;;;-3.00;98.80;;;-4.56;98.96;99100.09;4969491;28;20469;-69
2021/11/23 05:24:16;;;;;;;56.73;30.47;;;-2.90;97.40;;;-4.55;98.25;99096.53;4968806;28;20556;-70
2021/11/23 05:26:43;;;;;;;39.37;22.30;;;-2.90;95.90;;;-4.66;98.72;99096.31;4971720;28;20461;-69
2021/11/23 05:29:11;;;;;;;32.20;18.77;;;-2.90;94.30;;;-4.75;98.93;99088.97;4968742;28;20886;-69
2021/11/23 05:31:40;;;;;;;26.97;17.40;;;-2.90;94.20;;;-4.92;100.00;99077.63;4952379;28;20474;-69
2021/11/23 05:34:08;;;;;;;26.27;17.50;;;-3.00;94.70;;;-4.84;100.00;99095.63;4969421;28;20465;-69
2021/11/23 05:36:35;;;;;;;32.03;17.37;;;-3.00;95.80;;;-4.91;100.00;99094.28;4965076;28;20966;-69
2021/11/23 05:39:03;;;;;;;26.33;17.10;;;-3.10;96.20;;;-4.95;100.00;99087.50;4972643;28;20951;-70
2021/11/23 05:41:30;;;;;;;23.40;15.03;;;-3.20;96.70;;;-4.68;100.00;99095.56;4970269;28;20957;-69
2021/11/23 05:43:57;;;;;;;18.20;13.80;;;-3.00;99.10;;;-4.51;99.00;99094.56;4966115;28;20464;-69
2021/11/23 05:46:24;;;;;;;18.73;12.93;;;-2.90;96.50;;;-4.59;98.04;99099.44;4971888;28;20516;-69
2021/11/23 05:48:53;;;;;;;17.73;14.20;;;-2.90;93.40;;;-4.72;97.76;99080.88;4970430;28;20959;-69
2021/11/23 05:51:21;;;;;;;18.07;13.77;;;-2.90;93.00;;;-4.80;98.66;99096.28;4968041;28;20453;-69
2021/11/23 05:53:48;;;;;;;20.47;15.37;;;-2.90;92.60;;;-4.60;98.53;99113.56;4955066;28;21109;-70
2021/11/23 05:56:15;;;;;;;17.77;12.90;;;-2.90;93.80;;;-4.66;98.10;99098.94;4969618;28;20461;-69
2021/11/23 05:58:42;;;;;;;20.90;15.43;;;-2.80;93.10;;;-4.62;98.27;99116.31;4968742;28;20966;-70
2021/11/23 06:01:09;;;;;;;18.23;13.97;;;-2.90;93.10;;;-4.85;98.84;99115.88;4963687;28;20485;-71
2021/11/23 06:03:36;;;;;;;17.57;13.40;;;-2.90;92.30;;;-4.96;100.00;99117.44;4968716;28;20863;-70
2021/11/23 06:06:06;;;;;;;19.30;14.50;;;-3.00;93.90;;;-5.03;100.00;99119.59;4967481;28;21190;-70
2021/11/23 06:08:33;;;;;;;19.33;14.00;;;-3.10;95.20;;;-4.87;100.00;99116.88;4967836;28;21085;-70
2021/11/23 06:11:02;;;;;;;16.53;13.50;;;-3.10;98.30;;;-4.35;100.00;99117.38;4965766;28;20465;-72
2021/11/23 06:13:29;;;;;;;23.95;15.85;;;-2.80;99.90;;;-4.35;100.00;99114.72;4964508;28;20456;-74
2021/11/23 06:15:57;;;;;;;20.67;15.13;;;-2.70;99.90;;;-4.52;100.00;99121.00;4966514;28;20190;-71
2021/11/23 06:18:24;;;;;;;19.27;15.40;;;-2.70;99.90;;;-4.66;100.00;99122.69;4968014;28;20567;-75
2021/11/23 06:20:54;;;;;;;18.03;13.63;;;-2.80;97.60;;;-4.36;100.00;99128.88;4966828;28;20450;-68
2021/11/23 06:23:24;;;;;;;17.40;13.60;;;-2.70;99.90;;;-4.55;99.33;99136.09;4948992;28;20865;-68
2021/11/23 06:25:54;;;;;;;16.20;11.70;;;-2.80;96.60;;;-4.72;98.79;99136.25;4965927;28;20544;-69
2021/11/23 06:28:23;;;;;;;21.10;13.30;;;-2.90;94.70;;;-4.77;98.59;99148.88;4966192;28;20825;-72
2021/11/23 06:30:51;;;;;;;18.33;12.00;;;-3.00;93.50;;;-4.94;98.29;99148.03;4966894;28;20876;-72
2021/11/23 06:33:18;;;;;;;15.97;12.67;;;-3.10;92.60;;;-4.86;98.71;99155.50;4948494;28;20457;-69
2021/11/23 06:35:45;;;;;;;15.80;11.10;;;-3.10;93.60;;;-4.94;98.14;99160.38;4949559;28;20501;-68
2021/11/23 06:38:13;;;;;;;12.27;10.23;;;-3.20;92.80;;;-5.02;98.12;99160.81;4946921;28;20198;-67
2021/11/23 06:40:42;;;;;;;16.25;11.23;;;-3.20;92.90;;;-4.89;98.36;99166.22;4971801;28;20465;-67
2021/11/23 06:43:11;;;;;;;20.70;10.80;;;-3.10;93.70;;;-4.96;97.31;99165.72;4964173;28;20214;-69
2021/11/23 06:45:39;;;;;;;16.33;10.53;;;-3.20;92.10;;;-5.14;97.36;99168.50;4966350;28;20569;-67
2021/11/23 06:48:08;;;;;;;16.23;12.27;;;-3.30;91.40;;;-4.75;98.23;99173.34;4946982;28;20581;-68
2021/11/23 06:50:35;;;;;;;17.93;11.37;;;-3.20;94.60;;;-4.09;99.26;99175.63;4970326;28;20467;-67
2021/11/23 06:53:06;;;;;;;20.17;12.13;;;-2.70;99.40;;;-4.07;98.18;99177.22;4965672;28;20520;-68
2021/11/23 06:55:33;;;;;;;16.00;12.13;;;-2.40;96.50;;;-3.78;98.07;99177.22;4968675;28;20539;-69
2021/11/23 06:58:02;;;;;;;22.77;13.70;;;-2.20;97.20;;;-3.58;97.95;99180.41;4966693;28;20748;-69
2021/11/23 07:00:29;;;;;;;19.40;13.47;;;-2.10;95.30;;;-3.34;97.35;99177.16;4961695;28;21051;-68
2021/11/23 07:02:56;;;;;;;21.53;12.60;;;-1.80;95.70;;;-3.53;96.91;99157.19;4965055;28;20478;-69
2021/11/23 07:05:24;;;;;;;22.30;14.43;;;-1.80;93.70;;;-3.33;96.38;99185.00;4962022;28;20486;-69
2021/11/23 07:07:51;;;;;;;21.40;14.73;;;-1.70;92.10;;;-3.73;96.12;99188.34;4964805;28;20466;-68
2021/11/23 07:10:19;;;;;;;15.90;12.53;;;-1.90;90.50;;;-3.76;95.52;99182.44;4965225;28;20989;-69
2021/11/23 07:12:46;;;;;;;28.13;18.70;;;-2.00;90.30;;;-3.88;96.32;99189.28;4961657;28;20556;-69
2021/11/23 07:15:15;;;;;;;32.27;21.60;;;-2.10;90.20;;;-3.94;97.11;99189.69;4951945;28;20469;-69
2021/11/23 07:17:42;;;;;;;36.60;23.53;;;-2.20;91.40;;;-3.89;97.96;99187.59;4950109;28;20877;-70
2021/11/23 07:20:10;;;;;;;65.43;38.05;;;-2.30;92.90;;;-4.03;97.02;99186.66;4968028;28;21114;-68
2021/11/23 07:22:37;;;;;;;53.53;32.50;;;-2.30;92.20;;;-3.81;97.50;99185.34;4971451;28;20198;-70
2021/11/23 07:25:05;;;;;;;56.57;30.37;;;-2.20;94.50;;;-4.00;96.80;99177.72;4966121;28;20470;-68
2021/11/23 07:27:32;;;;;;;44.73;27.87;;;-2.20;92.50;;;-4.02;96.99;99179.59;4970968;28;20516;-68
2021/11/23 07:30:00;;;;;;;40.73;25.80;;;-2.30;92.40;;;-4.00;97.33;99180.34;4973096;28;20520;-69
2021/11/23 07:32:28;;;;;;;42.60;27.07;;;-2.30;92.60;;;-3.94;97.28;99185.28;4954512;28;20670;-71
2021/11/23 07:34:55;;;;;;;35.27;24.27;;;-2.30;92.70;;;-3.85;96.98;99168.00;4953991;28;20465;-71
2021/11/23 07:37:25;;;;;;;43.97;25.03;;;-2.20;93.10;;;-3.82;97.08;99178.38;4971564;28;20493;-70
2021/11/23 07:39:53;;;;;;;34.87;22.90;;;-2.10;92.50;;;-3.58;97.11;99183.06;4969953;28;20485;-70
2021/11/23 07:42:20;;;;;;;31.23;18.97;;;-2.00;93.30;;;-3.55;97.25;99188.16;4970108;28;20460;-70
2021/11/23 07:44:47;;;;;;;37.73;22.63;;;-1.90;92.40;;;-3.42;97.52;99181.13;4969499;28;20465;-69
2021/11/23 07:47:14;;;;;;;32.03;21.17;;;-1.90;93.60;;;-3.39;97.19;99173.97;4973561;28;20964;-70
2021/11/23 07:49:43;;;;;;;31.77;23.63;;;-1.70;93.00;;;-3.53;97.16;99188.91;4968021;28;20469;-71
2021/11/23 07:52:14;;;;;;;38.10;23.30;;;-1.80;92.00;;;-3.42;97.60;99189.06;4957179;28;20453;-69
2021/11/23 07:54:41;;;;;;;35.70;23.10;;;-1.70;93.40;;;-3.54;97.93;99186.34;4971473;28;20477;-69
2021/11/23 07:57:08;;;;;;;25.67;18.97;;;-1.80;92.80;;;-3.50;98.03;99180.78;4974147;28;20461;-71
2021/11/23 07:59:36;;;;;;;30.07;20.83;;;-1.80;94.00;;;-3.33;98.47;99190.28;4955652;28;20824;-70
2021/11/23 08:02:03;;;;;;;27.50;18.50;;;-1.70;95.60;;;-2.86;98.29;99190.78;4972958;28;20516;-71
2021/11/23 08:04:31;;;;;;;25.50;18.70;;;-1.50;98.40;;;-2.62;97.01;99190.13;4968927;28;20544;-69
2021/11/23 08:06:59;;;;;;;27.70;18.60;;;-1.10;95.20;;;-2.46;96.09;99184.63;4974648;28;21252;-71
2021/11/23 08:09:26;;;;;;;22.67;17.80;;;-1.00;93.00;;;-2.74;94.79;99188.28;4954461;28;20462;-72
2021/11/23 08:11:53;;;;;;;28.13;17.83;;;-1.00;90.20;;;-2.54;96.40;99191.41;4974344;28;20468;-70
2021/11/23 08:14:23;;;;;;;23.40;17.93;;;-1.00;91.90;;;-2.83;95.52;99195.03;4971072;28;20465;-70
2021/11/23 08:16:50;;;;;;;27.90;19.23;;;-1.00;90.00;;;-2.90;95.57;99193.72;4964887;28;20566;-69
2021/11/23 08:19:17;;;;;;;30.93;22.10;;;-1.10;90.40;;;-2.91;95.24;99192.03;4967725;28;20545;-68
2021/11/23 08:21:44;;;;;;;36.00;24.33;;;-1.10;90.00;;;-2.88;95.73;99211.22;4953075;28;20469;-70
2021/11/23 08:24:13;;;;;;;40.40;25.90;;;-1.10;90.60;;;-2.79;96.09;99201.81;4948919;28;20465;-70
2021/11/23 08:26:40;;;;;;;41.13;26.50;;;-1.10;91.70;;;-2.73;96.29;99198.78;4953998;28;20474;-69
2021/11/23 08:29:07;;;;;;;43.33;29.50;;;-1.10;92.30;;;-2.71;96.13;99190.72;4966533;28;20492;-69
2021/11/23 08:31:36;;;;;;;37.27;24.60;;;-1.10;91.90;;;-2.40;96.75;99201.06;4966641;28;20823;-69
2021/11/23 08:34:05;;;;;;;37.27;25.00;;;-0.90;93.30;;;-2.47;95.61;99198.81;4963047;28;20488;-69
2021/11/23 08:36:33;;;;;;;34.07;24.13;;;-0.80;92.00;;;-2.00;96.73;99201.84;4950987;28;20538;-69
2021/11/23 08:39:00;;;;;;;35.80;23.23;;;-0.60;94.00;;;-1.92;95.33;99203.09;4970075;28;20833;-68
2021/11/23 08:41:29;;;;;;;31.20;22.23;;;-0.40;92.00;;;-1.92;95.43;99195.16;4965690;28;20466;-69
2021/11/23 08:43:56;;;;;;;34.17;23.07;;;-0.40;92.00;;;-1.48;94.86;99190.34;4951006;28;20846;-69
2021/11/23 08:46:23;;;;;;;28.60;21.23;;;-0.10;92.30;;;-1.06;93.96;99197.94;4965067;28;20478;-69
2021/11/23 08:48:50;;;;;;;31.47;22.33;;;0.20;91.80;;;-1.19;93.21;99188.22;4967930;28;20923;-68
2021/11/23 08:51:21;;;;;;;34.30;21.80;;;0.40;90.20;;;-1.01;92.18;99193.16;4965673;28;20469;-70
2021/11/23 08:53:48;;;;;;;28.60;19.73;;;0.50;89.00;;;-1.23;92.89;99194.72;4952323;28;21003;-68
2021/11/23 08:56:15;;;;;;;27.93;20.70;;;0.40;88.20;;;-1.10;93.03;99191.19;4968605;28;20454;-69
2021/11/23 08:58:47;;;;;;;27.00;20.47;;;0.40;89.20;;;-0.78;92.36;99195.94;4950835;28;20476;-68
2021/11/23 09:01:14;;;;;;;29.10;21.10;;;0.60;89.50;;;-1.00;90.29;99194.84;4948402;28;20495;-69
2021/11/23 09:03:42;;;;;;;27.33;20.97;;;0.60;84.50;;;-1.18;91.53;99199.69;4964963;28;20461;-69
2021/11/23 09:06:09;;;;;;;27.33;21.70;;;0.50;85.80;;;-1.23;92.58;99199.16;4970415;28;20485;-68
2021/11/23 09:08:39;;;;;;;28.00;19.27;;;0.40;86.50;;;-1.09;93.74;99187.56;4965694;28;20472;-69
2021/11/23 09:11:06;;;;;;;27.57;19.40;;;0.40;90.10;;;-0.44;92.38;99180.13;4961566;28;20457;-69
2021/11/23 09:13:33;;;;;;;29.80;21.37;;;0.80;90.30;;;-0.63;91.28;99192.13;4961210;28;20454;-69
2021/11/23 09:16:02;;;;;;;25.03;19.40;;;0.80;88.10;;;-0.47;91.10;99186.50;4965103;28;20467;-69
2021/11/23 09:18:29;;;;;;;26.53;20.27;;;1.00;87.30;;;-0.83;88.93;99195.41;4963651;28;20474;-69
2021/11/23 09:20:56;;;;;;;29.20;19.87;;;0.90;81.40;;;-0.94;89.35;99198.84;4964247;28;20466;-69
2021/11/23 09:23:25;;;;;;;24.17;19.57;;;0.80;82.00;;;-0.79;89.88;99202.19;4968308;28;20541;-71
2021/11/23 09:25:52;;;;;;;26.80;20.13;;;0.80;82.30;;;-0.79;89.14;99204.84;4951409;28;20509;-68
2021/11/23 09:28:19;;;;;;;29.80;20.53;;;0.80;82.00;;;-0.75;89.90;99203.66;4948225;28;20453;-70
2021/11/23 09:30:47;;;;;;;28.17;19.97;;;0.80;82.10;;;-0.66;89.48;99207.44;4965167;28;20877;-70
2021/11/23 09:33:17;;;;;;;26.73;21.50;;;0.90;82.40;;;-0.64;88.83;99208.16;4963205;28;20465;-69
2021/11/23 09:35:44;;;;;;;24.63;20.60;;;0.90;82.10;;;-0.46;88.66;99211.25;4965603;28;20524;-68
2021/11/23 09:38:11;;;;;;;26.90;20.77;;;1.00;82.50;;;-0.37;89.37;99207.06;4964866;28;20636;-69
2021/11/23 09:40:39;;;;;;;30.07;21.93;;;1.10;83.60;;;-0.12;88.42;99211.34;4962977;28;20469;-69
2021/11/23 09:43:06;;;;;;;25.13;21.00;;;1.30;82.70;;;-0.14;88.36;99197.31;4961736;28;20466;-68
2021/11/23 09:45:33;;;;;;;28.23;20.23;;;1.40;82.90;;;-0.26;88.75;99203.56;4962283;28;20462;-68
2021/11/23 09:48:05;;;;;;;22.30;19.87;;;1.30;82.90;;;-0.24;88.72;99206.94;4961479;28;20479;-69
2021/11/23 09:50:38;;;;;;;24.73;19.73;;;1.30;82.30;;;0.03;87.44;99208.47;4961493;28;20477;-67
2021/11/23 09:53:05;;;;;;;28.03;18.43;;;1.50;81.00;;;-0.08;87.98;99207.47;4957106;28;21094;-68
2021/11/23 09:55:33;;;;;;;23.00;19.97;;;1.50;81.40;;;-0.16;88.07;99204.56;4949166;28;20520;-69
2021/11/23 09:58:00;;;;;;;27.47;19.47;;;1.40;81.70;;;-0.16;88.48;99194.78;4962311;28;20466;-67
2021/11/23 10:00:34;;;;;;;27.67;20.47;;;1.40;82.10;;;-0.11;88.95;99194.44;4960077;28;21054;-68
2021/11/23 10:03:08;;;;;;;22.43;19.97;;;1.40;82.80;;;-0.03;88.22;99192.03;4958608;28;20461;-68
2021/11/23 10:05:39;;;;;;;21.30;18.37;;;1.50;81.50;;;-0.16;88.63;99191.28;4964299;28;20460;-67
2021/11/23 10:08:09;;;;;;;20.40;17.53;;;1.40;82.20;;;0.02;87.45;99191.69;4943571;28;20520;-67